sensor_id;sensor_type;location;lat;lon;timestamp;temperature;humidity
23633;DHT22;11993;48.748;9.166;2023-01-08T00:01:35;6.30;78.90
23633;DHT22;11993;48.748;9.166;2023-01-08T00:04:00;6.30;78.90
23633;DHT22;11993;48.748;9.166;2023-01-08T00:06:26;6.20;79.10
23633;DHT22;11993;48.748;9.166;2023-01-08T00:08:52;6.30;79.10
23633;DHT22;11993;48.748;9.166;2023-01-08T00:11:18;6.20;79.20
23633;DHT22;11993;48.748;9.166;2023-01-08T00:13:43;6.30;78.90
23633;DHT22;11993;48.748;9.166;2023-01-08T00:16:14;6.20;79.00
23633;DHT22;11993;48.748;9.166;2023-01-08T00:18:40;6.30;78.90
23633;DHT22;11993;48.748;9.166;2023-01-08T00:21:06;6.30;78.90
23633;DHT22;11993;48.748;9.166;2023-01-08T00:23:32;6.30;78.70
23633;DHT22;11993;48.748;9.166;2023-01-08T00:26:03;6.20;78.80
23633;DHT22;11993;48.748;9.166;2023-01-08T00:28:29;6.20;79.10
23633;DHT22;11993;48.748;9.166;2023-01-08T00:30:54;6.20;79.10
23633;DHT22;11993;48.748;9.166;2023-01-08T00:33:20;6.20;78.80
23633;DHT22;11993;48.748;9.166;2023-01-08T00:35:46;6.20;78.80
23633;DHT22;11993;48.748;9.166;2023-01-08T00:38:11;6.10;78.90
23633;DHT22;11993;48.748;9.166;2023-01-08T00:40:37;6.20;78.50
23633;DHT22;11993;48.748;9.166;2023-01-08T00:43:04;6.20;78.70
23633;DHT22;11993;48.748;9.166;2023-01-08T00:45:30;6.20;78.50
23633;DHT22;11993;48.748;9.166;2023-01-08T00:47:55;6.20;78.50
23633;DHT22;11993;48.748;9.166;2023-01-08T00:50:21;6.20;78.30
23633;DHT22;11993;48.748;9.166;2023-01-08T00:52:47;6.20;78.20
23633;DHT22;11993;48.748;9.166;2023-01-08T00:55:12;6.20;78.70
23633;DHT22;11993;48.748;9.166;2023-01-08T00:57:38;6.20;78.10
23633;DHT22;11993;48.748;9.166;2023-01-08T01:00:06;6.20;78.00
23633;DHT22;11993;48.748;9.166;2023-01-08T01:02:36;6.20;78.30
23633;DHT22;11993;48.748;9.166;2023-01-08T01:05:02;6.10;78.70
23633;DHT22;11993;48.748;9.166;2023-01-08T01:07:28;6.10;78.80
23633;DHT22;11993;48.748;9.166;2023-01-08T01:09:53;6.20;78.70
23633;DHT22;11993;48.748;9.166;2023-01-08T01:12:19;6.20;78.60
23633;DHT22;11993;48.748;9.166;2023-01-08T01:14:45;6.30;78.40
23633;DHT22;11993;48.748;9.166;2023-01-08T01:17:11;6.20;78.50
23633;DHT22;11993;48.748;9.166;2023-01-08T01:19:37;6.10;78.60
23633;DHT22;11993;48.748;9.166;2023-01-08T01:22:03;6.20;78.30
23633;DHT22;11993;48.748;9.166;2023-01-08T01:24:28;6.20;78.40
23633;DHT22;11993;48.748;9.166;2023-01-08T01:26:54;6.20;78.20
23633;DHT22;11993;48.748;9.166;2023-01-08T01:29:22;6.10;78.50
23633;DHT22;11993;48.748;9.166;2023-01-08T01:31:47;6.30;78.00
23633;DHT22;11993;48.748;9.166;2023-01-08T01:34:13;6.20;78.30
23633;DHT22;11993;48.748;9.166;2023-01-08T01:36:39;6.20;78.40
23633;DHT22;11993;48.748;9.166;2023-01-08T01:39:04;6.20;78.50
23633;DHT22;11993;48.748;9.166;2023-01-08T01:41:42;6.10;78.70
23633;DHT22;11993;48.748;9.166;2023-01-08T01:44:37;6.10;78.90
23633;DHT22;11993;48.748;9.166;2023-01-08T01:47:24;6.20;78.60
23633;DHT22;11993;48.748;9.166;2023-01-08T01:52:31;6.10;78.80
23633;DHT22;11993;48.748;9.166;2023-01-08T01:54:59;6.10;78.90
23633;DHT22;11993;48.748;9.166;2023-01-08T01:57:26;6.10;79.00
23633;DHT22;11993;48.748;9.166;2023-01-08T01:59:53;6.10;78.60
23633;DHT22;11993;48.748;9.166;2023-01-08T02:02:19;6.10;78.90
23633;DHT22;11993;48.748;9.166;2023-01-08T02:04:45;6.10;79.10
23633;DHT22;11993;48.748;9.166;2023-01-08T02:07:15;6.00;79.20
23633;DHT22;11993;48.748;9.166;2023-01-08T02:09:51;6.10;79.00
23633;DHT22;11993;48.748;9.166;2023-01-08T02:12:29;5.80;79.60
23633;DHT22;11993;48.748;9.166;2023-01-08T02:15:15;5.80;79.80
23633;DHT22;11993;48.748;9.166;2023-01-08T02:17:53;5.90;79.60
23633;DHT22;11993;48.748;9.166;2023-01-08T02:20:31;5.90;79.40
23633;DHT22;11993;48.748;9.166;2023-01-08T02:23:11;6.00;79.10
23633;DHT22;11993;48.748;9.166;2023-01-08T02:28:33;6.00;79.30
23633;DHT22;11993;48.748;9.166;2023-01-08T02:31:00;5.90;79.50
23633;DHT22;11993;48.748;9.166;2023-01-08T02:33:28;6.00;79.10
23633;DHT22;11993;48.748;9.166;2023-01-08T02:38:44;5.80;79.70
23633;DHT22;11993;48.748;9.166;2023-01-08T02:41:13;5.80;79.80
23633;DHT22;11993;48.748;9.166;2023-01-08T02:43:44;5.80;79.80
23633;DHT22;11993;48.748;9.166;2023-01-08T02:46:14;5.80;79.80
23633;DHT22;11993;48.748;9.166;2023-01-08T02:48:57;5.70;80.00
23633;DHT22;11993;48.748;9.166;2023-01-08T02:51:33;5.90;79.70
23633;DHT22;11993;48.748;9.166;2023-01-08T02:54:02;5.70;80.00
23633;DHT22;11993;48.748;9.166;2023-01-08T02:56:33;5.80;80.00
23633;DHT22;11993;48.748;9.166;2023-01-08T02:59:02;5.70;80.00
23633;DHT22;11993;48.748;9.166;2023-01-08T03:01:30;5.80;79.90
23633;DHT22;11993;48.748;9.166;2023-01-08T03:03:59;5.80;80.00
23633;DHT22;11993;48.748;9.166;2023-01-08T03:06:28;5.70;80.00
23633;DHT22;11993;48.748;9.166;2023-01-08T03:08:54;5.70;80.10
23633;DHT22;11993;48.748;9.166;2023-01-08T03:11:21;5.70;80.10
23633;DHT22;11993;48.748;9.166;2023-01-08T03:14:06;5.70;79.90
23633;DHT22;11993;48.748;9.166;2023-01-08T03:16:51;5.70;79.70
23633;DHT22;11993;48.748;9.166;2023-01-08T03:19:22;5.80;79.50
23633;DHT22;11993;48.748;9.166;2023-01-08T03:21:51;5.80;79.40
23633;DHT22;11993;48.748;9.166;2023-01-08T03:24:24;5.80;79.10
23633;DHT22;11993;48.748;9.166;2023-01-08T03:26:54;5.90;79.10
23633;DHT22;11993;48.748;9.166;2023-01-08T03:29:21;5.90;79.10
23633;DHT22;11993;48.748;9.166;2023-01-08T03:31:49;5.90;79.00
23633;DHT22;11993;48.748;9.166;2023-01-08T03:34:18;5.90;78.90
23633;DHT22;11993;48.748;9.166;2023-01-08T03:36:47;5.90;78.60
23633;DHT22;11993;48.748;9.166;2023-01-08T03:39:54;5.90;78.90
23633;DHT22;11993;48.748;9.166;2023-01-08T03:42:22;5.90;78.70
23633;DHT22;11993;48.748;9.166;2023-01-08T03:44:49;6.00;78.70
23633;DHT22;11993;48.748;9.166;2023-01-08T03:47:15;6.00;78.90
23633;DHT22;11993;48.748;9.166;2023-01-08T03:49:42;5.90;79.10
23633;DHT22;11993;48.748;9.166;2023-01-08T03:52:08;5.90;79.10
23633;DHT22;11993;48.748;9.166;2023-01-08T03:54:44;5.90;78.80
23633;DHT22;11993;48.748;9.166;2023-01-08T03:57:10;6.00;78.80
23633;DHT22;11993;48.748;9.166;2023-01-08T03:59:35;6.10;78.40
23633;DHT22;11993;48.748;9.166;2023-01-08T04:02:01;6.10;78.50
23633;DHT22;11993;48.748;9.166;2023-01-08T04:04:26;6.10;78.40
23633;DHT22;11993;48.748;9.166;2023-01-08T04:06:52;6.10;78.50
23633;DHT22;11993;48.748;9.166;2023-01-08T04:09:18;6.10;78.40
23633;DHT22;11993;48.748;9.166;2023-01-08T04:11:43;6.10;78.40
23633;DHT22;11993;48.748;9.166;2023-01-08T04:14:09;6.10;78.60
23633;DHT22;11993;48.748;9.166;2023-01-08T04:16:36;6.10;78.50
23633;DHT22;11993;48.748;9.166;2023-01-08T04:19:02;6.10;78.60
23633;DHT22;11993;48.748;9.166;2023-01-08T04:21:28;6.20;78.20
23633;DHT22;11993;48.748;9.166;2023-01-08T04:23:53;6.20;78.00
23633;DHT22;11993;48.748;9.166;2023-01-08T04:26:19;6.20;78.30
23633;DHT22;11993;48.748;9.166;2023-01-08T04:28:44;6.30;77.90
23633;DHT22;11993;48.748;9.166;2023-01-08T04:31:10;6.40;77.50
23633;DHT22;11993;48.748;9.166;2023-01-08T04:33:36;6.40;77.80
23633;DHT22;11993;48.748;9.166;2023-01-08T04:36:03;6.40;77.50
23633;DHT22;11993;48.748;9.166;2023-01-08T04:38:29;6.30;78.00
23633;DHT22;11993;48.748;9.166;2023-01-08T04:40:59;6.40;77.80
23633;DHT22;11993;48.748;9.166;2023-01-08T04:43:24;6.50;77.50
23633;DHT22;11993;48.748;9.166;2023-01-08T04:45:51;6.70;76.60
23633;DHT22;11993;48.748;9.166;2023-01-08T04:48:16;7.00;75.30
23633;DHT22;11993;48.748;9.166;2023-01-08T04:50:42;7.40;73.60
23633;DHT22;11993;48.748;9.166;2023-01-08T04:53:07;7.70;72.50
23633;DHT22;11993;48.748;9.166;2023-01-08T04:55:33;7.80;72.10
23633;DHT22;11993;48.748;9.166;2023-01-08T04:57:58;7.90;71.50
23633;DHT22;11993;48.748;9.166;2023-01-08T05:00:24;8.00;71.20
23633;DHT22;11993;48.748;9.166;2023-01-08T05:02:50;8.00;71.40
23633;DHT22;11993;48.748;9.166;2023-01-08T05:05:15;8.10;71.30
23633;DHT22;11993;48.748;9.166;2023-01-08T05:07:41;8.10;71.80
23633;DHT22;11993;48.748;9.166;2023-01-08T05:10:07;8.10;72.20
23633;DHT22;11993;48.748;9.166;2023-01-08T05:12:32;8.10;72.80
23633;DHT22;11993;48.748;9.166;2023-01-08T05:14:58;8.10;73.50
23633;DHT22;11993;48.748;9.166;2023-01-08T05:17:23;8.00;74.20
23633;DHT22;11993;48.748;9.166;2023-01-08T05:19:49;8.10;74.80
23633;DHT22;11993;48.748;9.166;2023-01-08T05:22:14;8.00;75.10
23633;DHT22;11993;48.748;9.166;2023-01-08T05:24:40;8.00;75.60
23633;DHT22;11993;48.748;9.166;2023-01-08T05:27:06;8.00;75.90
23633;DHT22;11993;48.748;9.166;2023-01-08T05:29:31;7.90;76.40
23633;DHT22;11993;48.748;9.166;2023-01-08T05:31:57;8.00;76.50
23633;DHT22;11993;48.748;9.166;2023-01-08T05:34:22;7.90;76.60
23633;DHT22;11993;48.748;9.166;2023-01-08T05:36:48;8.00;76.70
23633;DHT22;11993;48.748;9.166;2023-01-08T05:39:13;8.00;76.90
23633;DHT22;11993;48.748;9.166;2023-01-08T05:41:39;8.00;76.90
23633;DHT22;11993;48.748;9.166;2023-01-08T05:44:04;7.90;77.50
23633;DHT22;11993;48.748;9.166;2023-01-08T05:46:30;8.00;76.50
23633;DHT22;11993;48.748;9.166;2023-01-08T05:48:56;7.90;77.10
23633;DHT22;11993;48.748;9.166;2023-01-08T05:51:22;7.90;77.90
23633;DHT22;11993;48.748;9.166;2023-01-08T05:53:47;7.90;77.90
23633;DHT22;11993;48.748;9.166;2023-01-08T05:56:13;7.90;78.60
23633;DHT22;11993;48.748;9.166;2023-01-08T05:58:38;7.70;78.90
23633;DHT22;11993;48.748;9.166;2023-01-08T06:01:09;7.70;79.40
23633;DHT22;11993;48.748;9.166;2023-01-08T06:03:36;7.70;79.60
23633;DHT22;11993;48.748;9.166;2023-01-08T06:06:03;7.60;80.20
23633;DHT22;11993;48.748;9.166;2023-01-08T06:08:29;7.60;80.40
23633;DHT22;11993;48.748;9.166;2023-01-08T06:11:04;7.60;80.70
23633;DHT22;11993;48.748;9.166;2023-01-08T06:13:31;7.60;80.70
23633;DHT22;11993;48.748;9.166;2023-01-08T06:16:00;7.60;81.00
23633;DHT22;11993;48.748;9.166;2023-01-08T06:18:27;7.60;80.30
23633;DHT22;11993;48.748;9.166;2023-01-08T06:20:53;7.60;81.10
23633;DHT22;11993;48.748;9.166;2023-01-08T06:23:19;7.60;81.30
23633;DHT22;11993;48.748;9.166;2023-01-08T06:25:53;7.50;81.90
23633;DHT22;11993;48.748;9.166;2023-01-08T06:28:20;7.40;82.40
23633;DHT22;11993;48.748;9.166;2023-01-08T06:30:45;7.40;82.40
23633;DHT22;11993;48.748;9.166;2023-01-08T06:33:11;7.40;82.40
23633;DHT22;11993;48.748;9.166;2023-01-08T06:35:36;7.40;82.70
23633;DHT22;11993;48.748;9.166;2023-01-08T06:38:02;7.50;81.70
23633;DHT22;11993;48.748;9.166;2023-01-08T06:40:27;7.60;81.80
23633;DHT22;11993;48.748;9.166;2023-01-08T06:42:53;7.50;82.10
23633;DHT22;11993;48.748;9.166;2023-01-08T06:45:19;7.50;82.10
23633;DHT22;11993;48.748;9.166;2023-01-08T06:47:44;7.60;82.30
23633;DHT22;11993;48.748;9.166;2023-01-08T06:50:11;7.40;82.60
23633;DHT22;11993;48.748;9.166;2023-01-08T06:52:37;7.40;82.90
23633;DHT22;11993;48.748;9.166;2023-01-08T06:55:03;7.40;82.80
23633;DHT22;11993;48.748;9.166;2023-01-08T06:57:29;7.40;83.10
23633;DHT22;11993;48.748;9.166;2023-01-08T06:59:55;7.40;83.30
23633;DHT22;11993;48.748;9.166;2023-01-08T07:02:20;7.30;83.30
23633;DHT22;11993;48.748;9.166;2023-01-08T07:04:46;7.40;83.50
23633;DHT22;11993;48.748;9.166;2023-01-08T07:07:13;7.40;83.30
23633;DHT22;11993;48.748;9.166;2023-01-08T07:09:40;7.40;83.60
23633;DHT22;11993;48.748;9.166;2023-01-08T07:12:10;7.30;83.90
23633;DHT22;11993;48.748;9.166;2023-01-08T07:14:35;7.30;84.20
23633;DHT22;11993;48.748;9.166;2023-01-08T07:17:01;7.30;84.40
23633;DHT22;11993;48.748;9.166;2023-01-08T07:19:26;7.30;84.30
23633;DHT22;11993;48.748;9.166;2023-01-08T07:21:52;7.30;84.10
23633;DHT22;11993;48.748;9.166;2023-01-08T07:24:17;7.30;83.90
23633;DHT22;11993;48.748;9.166;2023-01-08T07:26:43;7.30;84.20
23633;DHT22;11993;48.748;9.166;2023-01-08T07:29:08;7.40;84.30
23633;DHT22;11993;48.748;9.166;2023-01-08T07:31:34;7.40;84.00
23633;DHT22;11993;48.748;9.166;2023-01-08T07:34:00;7.30;84.30
23633;DHT22;11993;48.748;9.166;2023-01-08T07:36:25;7.30;84.40
23633;DHT22;11993;48.748;9.166;2023-01-08T07:38:51;7.30;84.90
23633;DHT22;11993;48.748;9.166;2023-01-08T07:41:17;7.30;85.00
23633;DHT22;11993;48.748;9.166;2023-01-08T07:43:42;7.20;85.50
23633;DHT22;11993;48.748;9.166;2023-01-08T07:46:08;7.30;85.40
23633;DHT22;11993;48.748;9.166;2023-01-08T07:48:34;7.20;85.70
23633;DHT22;11993;48.748;9.166;2023-01-08T07:51:04;7.20;85.50
23633;DHT22;11993;48.748;9.166;2023-01-08T07:53:31;7.20;85.40
23633;DHT22;11993;48.748;9.166;2023-01-08T07:56:04;7.30;85.80
23633;DHT22;11993;48.748;9.166;2023-01-08T07:58:30;7.20;85.50
23633;DHT22;11993;48.748;9.166;2023-01-08T08:00:56;7.20;85.70
23633;DHT22;11993;48.748;9.166;2023-01-08T08:03:22;7.20;85.70
23633;DHT22;11993;48.748;9.166;2023-01-08T08:05:48;7.20;85.70
23633;DHT22;11993;48.748;9.166;2023-01-08T08:08:14;7.10;86.00
23633;DHT22;11993;48.748;9.166;2023-01-08T08:10:40;7.10;86.20
23633;DHT22;11993;48.748;9.166;2023-01-08T08:13:06;7.10;86.30
23633;DHT22;11993;48.748;9.166;2023-01-08T08:15:32;7.10;86.40
23633;DHT22;11993;48.748;9.166;2023-01-08T08:17:59;7.10;85.80
23633;DHT22;11993;48.748;9.166;2023-01-08T08:20:25;7.10;85.80
23633;DHT22;11993;48.748;9.166;2023-01-08T08:22:51;7.10;86.50
23633;DHT22;11993;48.748;9.166;2023-01-08T08:25:17;7.10;86.40
23633;DHT22;11993;48.748;9.166;2023-01-08T08:27:44;7.10;86.40
23633;DHT22;11993;48.748;9.166;2023-01-08T08:30:10;7.00;86.60
23633;DHT22;11993;48.748;9.166;2023-01-08T08:32:36;7.10;86.30
23633;DHT22;11993;48.748;9.166;2023-01-08T08:35:03;7.10;86.60
23633;DHT22;11993;48.748;9.166;2023-01-08T08:37:29;7.10;86.80
23633;DHT22;11993;48.748;9.166;2023-01-08T08:39:54;7.00;86.60
23633;DHT22;11993;48.748;9.166;2023-01-08T08:42:20;7.10;86.70
23633;DHT22;11993;48.748;9.166;2023-01-08T08:44:45;7.00;86.70
23633;DHT22;11993;48.748;9.166;2023-01-08T08:47:11;7.10;86.80
23633;DHT22;11993;48.748;9.166;2023-01-08T08:49:37;7.00;86.60
23633;DHT22;11993;48.748;9.166;2023-01-08T08:52:03;7.10;86.40
23633;DHT22;11993;48.748;9.166;2023-01-08T08:54:29;7.10;86.20
23633;DHT22;11993;48.748;9.166;2023-01-08T08:56:54;7.10;86.50
23633;DHT22;11993;48.748;9.166;2023-01-08T08:59:20;7.10;86.50
23633;DHT22;11993;48.748;9.166;2023-01-08T09:01:45;7.10;86.20
23633;DHT22;11993;48.748;9.166;2023-01-08T09:04:11;7.10;86.10
23633;DHT22;11993;48.748;9.166;2023-01-08T09:06:37;7.20;86.40
23633;DHT22;11993;48.748;9.166;2023-01-08T09:09:02;7.20;86.10
23633;DHT22;11993;48.748;9.166;2023-01-08T09:11:28;7.20;85.80
23633;DHT22;11993;48.748;9.166;2023-01-08T09:13:54;7.20;86.00
23633;DHT22;11993;48.748;9.166;2023-01-08T09:16:19;7.20;85.80
23633;DHT22;11993;48.748;9.166;2023-01-08T09:18:45;7.20;85.70
23633;DHT22;11993;48.748;9.166;2023-01-08T09:21:11;7.20;85.70
23633;DHT22;11993;48.748;9.166;2023-01-08T09:23:37;7.20;85.70
23633;DHT22;11993;48.748;9.166;2023-01-08T09:26:04;7.30;85.80
23633;DHT22;11993;48.748;9.166;2023-01-08T09:28:30;7.30;85.60
23633;DHT22;11993;48.748;9.166;2023-01-08T09:30:59;7.30;85.50
23633;DHT22;11993;48.748;9.166;2023-01-08T09:33:24;7.30;85.30
23633;DHT22;11993;48.748;9.166;2023-01-08T09:35:50;7.30;85.00
23633;DHT22;11993;48.748;9.166;2023-01-08T09:38:15;7.40;84.80
23633;DHT22;11993;48.748;9.166;2023-01-08T09:41:11;7.50;84.40
23633;DHT22;11993;48.748;9.166;2023-01-08T09:43:41;7.50;84.60
23633;DHT22;11993;48.748;9.166;2023-01-08T09:46:09;7.60;84.30
23633;DHT22;11993;48.748;9.166;2023-01-08T09:48:38;7.50;84.30
23633;DHT22;11993;48.748;9.166;2023-01-08T09:51:15;7.50;84.10
23633;DHT22;11993;48.748;9.166;2023-01-08T09:53:42;7.60;84.10
23633;DHT22;11993;48.748;9.166;2023-01-08T09:56:17;7.60;84.10
23633;DHT22;11993;48.748;9.166;2023-01-08T09:58:52;7.60;83.80
23633;DHT22;11993;48.748;9.166;2023-01-08T10:01:23;7.60;83.90
23633;DHT22;11993;48.748;9.166;2023-01-08T10:06:29;7.60;84.00
23633;DHT22;11993;48.748;9.166;2023-01-08T10:08:55;7.60;83.70
23633;DHT22;11993;48.748;9.166;2023-01-08T10:11:22;7.60;83.60
23633;DHT22;11993;48.748;9.166;2023-01-08T10:13:52;7.60;83.30
23633;DHT22;11993;48.748;9.166;2023-01-08T10:16:30;7.70;83.50
23633;DHT22;11993;48.748;9.166;2023-01-08T10:18:58;7.70;83.10
23633;DHT22;11993;48.748;9.166;2023-01-08T10:21:30;7.80;82.80
23633;DHT22;11993;48.748;9.166;2023-01-08T10:23:56;7.90;82.80
23633;DHT22;11993;48.748;9.166;2023-01-08T10:26:31;7.90;82.60
23633;DHT22;11993;48.748;9.166;2023-01-08T10:29:17;7.80;82.60
23633;DHT22;11993;48.748;9.166;2023-01-08T10:31:51;7.80;82.30
23633;DHT22;11993;48.748;9.166;2023-01-08T10:34:31;7.90;82.40
23633;DHT22;11993;48.748;9.166;2023-01-08T10:36:57;8.00;82.00
23633;DHT22;11993;48.748;9.166;2023-01-08T10:39:25;7.80;82.00
23633;DHT22;11993;48.748;9.166;2023-01-08T10:41:54;8.00;82.00
23633;DHT22;11993;48.748;9.166;2023-01-08T10:44:22;8.00;81.90
23633;DHT22;11993;48.748;9.166;2023-01-08T10:46:56;8.00;81.80
23633;DHT22;11993;48.748;9.166;2023-01-08T10:51:52;8.00;81.40
23633;DHT22;11993;48.748;9.166;2023-01-08T10:54:31;8.00;81.60
23633;DHT22;11993;48.748;9.166;2023-01-08T10:56:57;8.00;81.90
23633;DHT22;11993;48.748;9.166;2023-01-08T10:59:23;8.10;81.60
23633;DHT22;11993;48.748;9.166;2023-01-08T11:01:51;8.10;81.90
23633;DHT22;11993;48.748;9.166;2023-01-08T11:06:47;8.30;81.50
23633;DHT22;11993;48.748;9.166;2023-01-08T11:09:22;8.30;81.10
23633;DHT22;11993;48.748;9.166;2023-01-08T11:11:49;8.30;80.90
23633;DHT22;11993;48.748;9.166;2023-01-08T11:14:34;8.40;80.70
23633;DHT22;11993;48.748;9.166;2023-01-08T11:17:01;8.50;80.50
23633;DHT22;11993;48.748;9.166;2023-01-08T11:19:32;8.50;80.30
23633;DHT22;11993;48.748;9.166;2023-01-08T11:22:01;8.50;80.30
23633;DHT22;11993;48.748;9.166;2023-01-08T11:24:31;8.60;80.40
23633;DHT22;11993;48.748;9.166;2023-01-08T11:27:04;8.60;79.80
23633;DHT22;11993;48.748;9.166;2023-01-08T11:35:22;8.70;79.10
23633;DHT22;11993;48.748;9.166;2023-01-08T11:40:20;8.70;79.50
23633;DHT22;11993;48.748;9.166;2023-01-08T11:43:04;8.60;79.60
23633;DHT22;11993;48.748;9.166;2023-01-08T11:51:25;8.70;79.20
23633;DHT22;11993;48.748;9.166;2023-01-08T11:59:21;8.70;79.50
23633;DHT22;11993;48.748;9.166;2023-01-08T12:07:25;8.70;79.30
23633;DHT22;11993;48.748;9.166;2023-01-08T12:10:03;8.60;79.10
23633;DHT22;11993;48.748;9.166;2023-01-08T12:12:58;8.70;79.20
23633;DHT22;11993;48.748;9.166;2023-01-08T12:21:24;8.70;79.40
23633;DHT22;11993;48.748;9.166;2023-01-08T12:23:59;8.70;79.40
23633;DHT22;11993;48.748;9.166;2023-01-08T12:26:58;8.70;79.10
23633;DHT22;11993;48.748;9.166;2023-01-08T12:34:59;8.70;79.00
23633;DHT22;11993;48.748;9.166;2023-01-08T12:40:27;8.70;78.80
23633;DHT22;11993;48.748;9.166;2023-01-08T12:42:57;8.70;78.90
23633;DHT22;11993;48.748;9.166;2023-01-08T12:45:30;8.70;78.80
23633;DHT22;11993;48.748;9.166;2023-01-08T12:48:17;8.80;78.60
23633;DHT22;11993;48.748;9.166;2023-01-08T12:51:09;8.80;78.40
23633;DHT22;11993;48.748;9.166;2023-01-08T12:56:48;8.80;78.60
23633;DHT22;11993;48.748;9.166;2023-01-08T13:02:50;8.80;78.10
23633;DHT22;11993;48.748;9.166;2023-01-08T13:04:56;8.90;78.00
23633;DHT22;11993;48.748;9.166;2023-01-08T13:07:26;8.90;78.20
23633;DHT22;11993;48.748;9.166;2023-01-08T13:09:54;8.90;78.00
23633;DHT22;11993;48.748;9.166;2023-01-08T13:12:36;8.90;78.10
23633;DHT22;11993;48.748;9.166;2023-01-08T13:15:04;8.90;77.90
23633;DHT22;11993;48.748;9.166;2023-01-08T13:17:30;8.80;78.20
23633;DHT22;11993;48.748;9.166;2023-01-08T13:20:03;8.80;78.40
23633;DHT22;11993;48.748;9.166;2023-01-08T13:22:32;8.80;78.00
23633;DHT22;11993;48.748;9.166;2023-01-08T13:27:39;8.70;78.50
23633;DHT22;11993;48.748;9.166;2023-01-08T13:30:30;8.70;78.40
23633;DHT22;11993;48.748;9.166;2023-01-08T13:32:56;8.70;78.50
23633;DHT22;11993;48.748;9.166;2023-01-08T13:35:27;8.70;78.20
23633;DHT22;11993;48.748;9.166;2023-01-08T13:43:16;8.90;77.70
23633;DHT22;11993;48.748;9.166;2023-01-08T13:45:51;8.90;77.60
23633;DHT22;11993;48.748;9.166;2023-01-08T13:48:22;9.00;77.60
23633;DHT22;11993;48.748;9.166;2023-01-08T13:50:48;9.00;77.30
23633;DHT22;11993;48.748;9.166;2023-01-08T13:53:14;9.40;76.50
23633;DHT22;11993;48.748;9.166;2023-01-08T13:55:44;9.60;75.10
23633;DHT22;11993;48.748;9.166;2023-01-08T13:58:25;9.50;75.20
23633;DHT22;11993;48.748;9.166;2023-01-08T14:00:54;9.80;74.20
23633;DHT22;11993;48.748;9.166;2023-01-08T14:03:30;10.70;71.60
23633;DHT22;11993;48.748;9.166;2023-01-08T14:06:19;11.70;69.00
23633;DHT22;11993;48.748;9.166;2023-01-08T14:08:52;11.90;66.00
23633;DHT22;11993;48.748;9.166;2023-01-08T14:11:19;11.10;67.70
23633;DHT22;11993;48.748;9.166;2023-01-08T14:13:47;11.90;67.90
23633;DHT22;11993;48.748;9.166;2023-01-08T14:16:15;12.40;64.70
23633;DHT22;11993;48.748;9.166;2023-01-08T14:18:44;11.90;65.00
23633;DHT22;11993;48.748;9.166;2023-01-08T14:21:12;12.60;63.90
23633;DHT22;11993;48.748;9.166;2023-01-08T14:23:44;11.70;65.50
23633;DHT22;11993;48.748;9.166;2023-01-08T14:28:51;10.60;69.80
23633;DHT22;11993;48.748;9.166;2023-01-08T14:31:22;10.40;70.90
23633;DHT22;11993;48.748;9.166;2023-01-08T14:33:49;10.10;71.70
23633;DHT22;11993;48.748;9.166;2023-01-08T14:36:15;10.10;71.60
23633;DHT22;11993;48.748;9.166;2023-01-08T14:38:41;10.10;71.70
23633;DHT22;11993;48.748;9.166;2023-01-08T14:41:10;9.90;72.20
23633;DHT22;11993;48.748;9.166;2023-01-08T14:43:45;9.90;72.70
23633;DHT22;11993;48.748;9.166;2023-01-08T14:46:21;10.00;72.30
23633;DHT22;11993;48.748;9.166;2023-01-08T14:48:48;9.90;72.00
23633;DHT22;11993;48.748;9.166;2023-01-08T14:51:20;9.60;72.90
23633;DHT22;11993;48.748;9.166;2023-01-08T14:53:49;9.80;72.90
23633;DHT22;11993;48.748;9.166;2023-01-08T14:56:19;9.70;71.80
23633;DHT22;11993;48.748;9.166;2023-01-08T14:58:46;9.60;72.60
23633;DHT22;11993;48.748;9.166;2023-01-08T15:01:18;9.40;73.20
23633;DHT22;11993;48.748;9.166;2023-01-08T15:03:46;9.30;73.90
23633;DHT22;11993;48.748;9.166;2023-01-08T15:06:25;9.30;74.20
23633;DHT22;11993;48.748;9.166;2023-01-08T15:08:51;9.40;74.00
23633;DHT22;11993;48.748;9.166;2023-01-08T15:13:43;9.40;73.50
23633;DHT22;11993;48.748;9.166;2023-01-08T15:19:15;9.30;73.30
23633;DHT22;11993;48.748;9.166;2023-01-08T15:21:46;9.40;73.20
23633;DHT22;11993;48.748;9.166;2023-01-08T15:26:55;9.10;74.00
23633;DHT22;11993;48.748;9.166;2023-01-08T15:29:30;9.10;74.00
23633;DHT22;11993;48.748;9.166;2023-01-08T15:32:34;9.10;74.20
23633;DHT22;11993;48.748;9.166;2023-01-08T15:35:12;9.00;74.20
23633;DHT22;11993;48.748;9.166;2023-01-08T15:37:37;9.10;74.10
23633;DHT22;11993;48.748;9.166;2023-01-08T15:40:03;9.10;74.30
23633;DHT22;11993;48.748;9.166;2023-01-08T15:42:31;8.90;74.70
23633;DHT22;11993;48.748;9.166;2023-01-08T15:45:21;8.90;75.00
23633;DHT22;11993;48.748;9.166;2023-01-08T15:47:47;8.90;74.70
23633;DHT22;11993;48.748;9.166;2023-01-08T15:50:13;8.80;75.10
23633;DHT22;11993;48.748;9.166;2023-01-08T15:52:40;8.90;75.00
23633;DHT22;11993;48.748;9.166;2023-01-08T15:55:09;8.90;75.00
23633;DHT22;11993;48.748;9.166;2023-01-08T15:57:38;8.90;74.90
23633;DHT22;11993;48.748;9.166;2023-01-08T16:00:05;8.90;75.20
23633;DHT22;11993;48.748;9.166;2023-01-08T16:02:42;8.90;75.30
23633;DHT22;11993;48.748;9.166;2023-01-08T16:05:09;8.80;75.50
23633;DHT22;11993;48.748;9.166;2023-01-08T16:07:36;8.90;75.40
23633;DHT22;11993;48.748;9.166;2023-01-08T16:10:02;8.90;75.60
23633;DHT22;11993;48.748;9.166;2023-01-08T16:12:27;8.80;75.70
23633;DHT22;11993;48.748;9.166;2023-01-08T16:14:53;8.90;75.90
23633;DHT22;11993;48.748;9.166;2023-01-08T16:17:18;8.90;75.80
23633;DHT22;11993;48.748;9.166;2023-01-08T16:19:44;8.80;75.70
23633;DHT22;11993;48.748;9.166;2023-01-08T16:22:09;8.80;75.80
23633;DHT22;11993;48.748;9.166;2023-01-08T16:24:35;8.80;76.00
23633;DHT22;11993;48.748;9.166;2023-01-08T16:27:00;9.00;75.60
23633;DHT22;11993;48.748;9.166;2023-01-08T16:29:27;8.80;76.10
23633;DHT22;11993;48.748;9.166;2023-01-08T16:31:53;8.70;76.60
23633;DHT22;11993;48.748;9.166;2023-01-08T16:34:19;8.80;76.30
23633;DHT22;11993;48.748;9.166;2023-01-08T16:36:46;8.80;76.20
23633;DHT22;11993;48.748;9.166;2023-01-08T16:39:12;8.70;76.60
23633;DHT22;11993;48.748;9.166;2023-01-08T16:41:38;8.70;77.00
23633;DHT22;11993;48.748;9.166;2023-01-08T16:44:03;8.70;77.10
23633;DHT22;11993;48.748;9.166;2023-01-08T16:46:29;8.70;77.00
23633;DHT22;11993;48.748;9.166;2023-01-08T16:48:55;8.70;77.10
23633;DHT22;11993;48.748;9.166;2023-01-08T16:51:21;8.70;77.10
23633;DHT22;11993;48.748;9.166;2023-01-08T16:53:49;8.70;77.10
23633;DHT22;11993;48.748;9.166;2023-01-08T16:56:15;8.60;77.50
23633;DHT22;11993;48.748;9.166;2023-01-08T16:58:40;8.60;78.00
23633;DHT22;11993;48.748;9.166;2023-01-08T17:01:08;8.50;78.30
23633;DHT22;11993;48.748;9.166;2023-01-08T17:03:34;8.50;78.80
23633;DHT22;11993;48.748;9.166;2023-01-08T17:06:09;8.60;78.50
23633;DHT22;11993;48.748;9.166;2023-01-08T17:08:35;8.60;78.40
23633;DHT22;11993;48.748;9.166;2023-01-08T17:11:25;8.60;78.30
23633;DHT22;11993;48.748;9.166;2023-01-08T17:13:51;8.60;78.50
23633;DHT22;11993;48.748;9.166;2023-01-08T17:16:17;8.60;78.20